createdAt,value
2019-03-05T00:00:30.081Z,76.20
2019-03-05T00:03:00.836Z,76.05
2019-03-05T00:05:31.470Z,75.93
2019-03-05T00:08:01.447Z,75.94
2019-03-05T00:10:31.851Z,75.79
2019-03-05T00:13:01.931Z,75.85
2019-03-05T00:15:32.660Z,75.67
2019-03-05T00:18:03.416Z,75.68
2019-03-05T00:20:34.272Z,75.50
2019-03-05T00:23:05.128Z,74.88
2019-03-05T00:25:37.052Z,74.66
2019-03-05T00:28:19.730Z,74.84
2019-03-05T00:30:59.787Z,74.91
2019-03-05T00:33:36.453Z,74.65
2019-03-05T00:36:10.702Z,74.78
2019-03-05T00:38:53.100Z,74.83
2019-03-05T00:41:38.793Z,74.83
2019-03-05T00:44:28.373Z,74.78
2019-03-05T00:47:20.188Z,74.68
2019-03-05T00:50:06.268Z,74.81
2019-03-05T00:52:40.014Z,74.71
2019-03-05T00:55:13.835Z,74.61
2019-03-05T00:57:53.079Z,74.58
2019-03-05T01:00:42.070Z,74.51
2019-03-05T01:03:28.083Z,74.44
2019-03-05T01:06:07.975Z,74.44
2019-03-05T01:08:38.845Z,74.28
2019-03-05T01:11:09.698Z,74.16
2019-03-05T01:13:40.456Z,74.16
2019-03-05T01:16:12.846Z,74.10
2019-03-05T01:18:43.683Z,74.08
2019-03-05T01:21:14.456Z,74.05
2019-03-05T01:23:45.088Z,73.97
2019-03-05T01:26:15.961Z,74.05
2019-03-05T01:28:46.713Z,73.99
2019-03-05T01:31:30.874Z,73.97
2019-03-05T01:34:03.153Z,73.84
2019-03-05T01:36:35.546Z,73.74
2019-03-05T01:39:12.231Z,73.72
2019-03-05T01:41:43.086Z,73.64
2019-03-05T01:44:14.749Z,73.55
2019-03-05T01:46:45.415Z,73.62
2019-03-05T01:49:16.150Z,73.56
2019-03-05T01:51:47.020Z,73.53
2019-03-05T01:54:17.776Z,73.43
2019-03-05T01:56:48.410Z,73.51
2019-03-05T01:59:18.491Z,73.45
2019-03-05T02:01:48.896Z,73.44
2019-03-05T02:04:18.982Z,73.28
2019-03-05T02:06:49.500Z,73.29
2019-03-05T02:09:20.253Z,73.49
2019-03-05T02:11:51.144Z,73.77
2019-03-05T02:14:21.965Z,73.13
2019-03-05T02:16:52.705Z,73.16
2019-03-05T02:19:37.997Z,73.01
2019-03-05T02:22:11.291Z,73.23
2019-03-05T02:25:03.215Z,73.02
2019-03-05T02:27:42.766Z,73.14
2019-03-05T02:30:37.047Z,73.07
2019-03-05T02:33:10.986Z,73.06
2019-03-05T02:35:56.979Z,73.30
2019-03-05T02:38:56.370Z,73.46
2019-03-05T02:41:36.225Z,73.02
2019-03-05T02:44:44.207Z,72.91
2019-03-05T02:47:40.530Z,73.13
2019-03-05T02:50:29.795Z,72.76
2019-03-05T02:53:06.686Z,72.97
2019-03-05T02:55:55.445Z,73.11
2019-03-05T02:58:24.866Z,73.31
2019-03-05T03:00:57.234Z,73.09
2019-03-05T03:03:38.627Z,73.23
2019-03-05T03:06:10.933Z,72.96
2019-03-05T03:08:41.791Z,72.74
2019-03-05T03:11:12.535Z,72.74
2019-03-05T03:13:43.297Z,72.77
2019-03-05T03:16:14.150Z,72.40
2019-03-05T03:18:44.907Z,72.88
2019-03-05T03:21:15.660Z,72.61
2019-03-05T03:23:46.314Z,73.08
2019-03-05T03:26:17.167Z,72.89
2019-03-05T03:28:47.922Z,72.53
2019-03-05T03:31:18.678Z,72.58
2019-03-05T03:33:49.215Z,72.62
2019-03-05T03:36:20.063Z,72.66
2019-03-05T03:38:50.836Z,72.83
2019-03-05T03:41:21.588Z,72.72
2019-03-05T03:43:52.239Z,72.50
2019-03-05T03:46:24.118Z,72.85
2019-03-05T03:48:54.978Z,73.19
2019-03-05T03:51:25.831Z,73.43
2019-03-05T03:53:56.484Z,73.31
2019-03-05T03:56:27.341Z,73.39
2019-03-05T03:58:58.193Z,73.45
2019-03-05T04:01:28.950Z,73.66
2019-03-05T04:03:59.497Z,73.30
2019-03-05T04:06:30.356Z,73.24
2019-03-05T04:09:01.109Z,73.21
2019-03-05T04:11:31.862Z,73.46
2019-03-05T04:14:02.521Z,73.24
2019-03-05T04:16:33.369Z,73.46
2019-03-05T04:19:05.658Z,73.43
2019-03-05T04:21:36.414Z,73.11
2019-03-05T04:24:07.149Z,73.29
2019-03-05T04:26:38.033Z,73.39
2019-03-05T04:29:08.777Z,72.74
2019-03-05T04:31:39.409Z,72.90
2019-03-05T04:34:10.163Z,72.92
2019-03-05T04:36:41.035Z,73.03
2019-03-05T04:39:12.302Z,72.38
2019-03-05T04:41:43.156Z,72.44
2019-03-05T04:44:15.446Z,72.39
2019-03-05T04:46:48.756Z,72.59
2019-03-05T04:49:29.942Z,72.22
2019-03-05T04:52:04.793Z,72.19
2019-03-05T04:54:35.130Z,72.67
2019-03-05T04:57:05.988Z,71.99
2019-03-05T04:59:36.846Z,71.95
2019-03-05T05:02:07.583Z,71.77
2019-03-05T05:04:38.351Z,71.83
2019-03-05T05:07:09.193Z,71.74
2019-03-05T05:09:39.963Z,71.65
2019-03-05T05:12:10.714Z,71.50
2019-03-05T05:14:41.348Z,71.47
2019-03-05T05:17:12.223Z,71.49
2019-03-05T05:19:42.856Z,71.29
2019-03-05T05:22:13.632Z,71.47
2019-03-05T05:24:44.277Z,71.04
2019-03-05T05:27:15.117Z,70.97
2019-03-05T05:29:45.889Z,70.33
2019-03-05T05:32:16.644Z,70.75
2019-03-05T05:34:47.294Z,70.47
2019-03-05T05:37:18.134Z,69.98
2019-03-05T05:40:23.973Z,70.24
2019-03-05T05:42:54.943Z,70.15
2019-03-05T05:45:37.768Z,70.35
2019-03-05T05:48:09.323Z,69.52
2019-03-05T05:50:39.786Z,69.81
2019-03-05T05:53:10.847Z,70.23
2019-03-05T05:55:41.482Z,70.44
2019-03-05T05:58:12.251Z,70.71
2019-03-05T06:00:44.423Z,70.40
2019-03-05T06:03:15.293Z,69.81
2019-03-05T06:05:45.741Z,69.62
2019-03-05T06:08:16.494Z,69.05
2019-03-05T06:10:47.024Z,69.19
2019-03-05T06:13:16.996Z,68.52
2019-03-05T06:15:47.405Z,68.48
2019-03-05T06:18:17.377Z,67.91
2019-03-05T06:20:47.910Z,67.61
2019-03-05T06:23:18.663Z,67.00
2019-03-05T06:25:49.316Z,67.15
2019-03-05T06:28:20.173Z,66.89
2019-03-05T06:30:51.010Z,67.05
2019-03-05T06:33:21.789Z,67.35
2019-03-05T06:35:52.640Z,66.82
2019-03-05T06:38:23.494Z,66.35
2019-03-05T06:40:54.247Z,65.92
2019-03-05T06:43:24.795Z,66.05
2019-03-05T06:45:55.635Z,65.80
2019-03-05T06:48:27.314Z,65.85
2019-03-05T06:50:58.246Z,65.84
2019-03-05T06:53:29.020Z,65.97
2019-03-05T06:55:59.000Z,66.27
2019-03-05T06:58:29.409Z,66.28
2019-03-05T07:00:59.588Z,66.28
2019-03-05T07:03:30.093Z,65.81
2019-03-05T07:06:37.063Z,65.93
2019-03-05T07:09:16.913Z,65.29
2019-03-05T07:12:18.161Z,64.99
2019-03-05T07:15:10.068Z,64.25
2019-03-05T07:17:49.414Z,63.81
2019-03-05T07:20:39.924Z,63.98
2019-03-05T07:23:19.457Z,63.27
2019-03-05T07:25:50.022Z,62.77
2019-03-05T07:28:20.551Z,62.23
2019-03-05T07:30:51.427Z,62.91
2019-03-05T07:33:22.178Z,62.73
2019-03-05T07:35:52.915Z,62.31
2019-03-05T07:38:23.364Z,62.23
2019-03-05T07:40:53.342Z,61.72
2019-03-05T07:43:23.866Z,61.15
2019-03-05T07:45:53.727Z,61.31
2019-03-05T07:48:24.353Z,61.16
2019-03-05T07:50:56.026Z,60.82
2019-03-05T07:53:26.574Z,60.57
2019-03-05T07:55:57.412Z,61.03
2019-03-05T07:58:27.380Z,61.11
2019-03-05T08:00:57.710Z,60.38
2019-03-05T08:03:28.259Z,60.91
2019-03-05T08:05:58.125Z,60.61
2019-03-05T08:09:05.869Z,59.79
2019-03-05T08:11:36.305Z,59.67
2019-03-05T08:14:19.040Z,59.98
2019-03-05T08:16:49.688Z,60.17
2019-03-05T08:19:20.345Z,59.44
2019-03-05T08:21:50.874Z,59.70
2019-03-05T08:24:20.853Z,59.44
2019-03-05T08:26:51.381Z,59.22
2019-03-05T08:29:22.128Z,59.80
2019-03-05T08:31:52.946Z,59.50
2019-03-05T08:34:23.211Z,59.37
2019-03-05T08:36:53.181Z,58.96
2019-03-05T08:39:23.594Z,58.87
2019-03-05T08:41:54.260Z,58.61
2019-03-05T08:44:25.015Z,58.53
2019-03-05T08:46:55.857Z,58.18
2019-03-05T08:49:26.627Z,57.85
2019-03-05T08:51:58.300Z,57.50
2019-03-05T08:54:28.649Z,56.89
2019-03-05T08:56:59.398Z,56.79
2019-03-05T08:59:32.565Z,55.68
2019-03-05T09:02:02.221Z,55.70
2019-03-05T09:04:32.784Z,54.79
2019-03-05T09:07:03.540Z,55.24
2019-03-05T09:09:33.503Z,54.92
2019-03-05T09:12:04.027Z,54.07
2019-03-05T09:14:34.615Z,53.57
2019-03-05T09:17:05.211Z,54.52
2019-03-05T09:19:35.774Z,54.52
2019-03-05T09:22:05.731Z,53.60
2019-03-05T09:24:36.140Z,53.23
2019-03-05T09:27:06.691Z,52.81
2019-03-05T09:29:37.548Z,52.98
2019-03-05T09:32:08.198Z,53.05
2019-03-05T09:34:38.971Z,53.13
2019-03-05T09:37:09.502Z,52.25
2019-03-05T09:39:40.377Z,51.70
2019-03-05T09:42:11.333Z,51.81
2019-03-05T09:44:41.081Z,51.90
2019-03-05T09:47:11.615Z,51.72
2019-03-05T09:49:42.368Z,51.41
2019-03-05T09:52:14.025Z,51.41
2019-03-05T09:54:44.798Z,50.54
2019-03-05T09:57:15.534Z,50.34
2019-03-05T09:59:46.404Z,49.81
2019-03-05T10:02:17.160Z,50.21
2019-03-05T10:04:47.897Z,50.32
2019-03-05T10:07:19.380Z,49.92
2019-03-05T10:09:50.225Z,49.51
2019-03-05T10:12:21.095Z,49.02
2019-03-05T10:14:51.953Z,48.89
2019-03-05T10:17:22.587Z,48.94
2019-03-05T10:19:52.769Z,48.37
2019-03-05T10:22:23.295Z,47.44
2019-03-05T10:24:53.926Z,47.28
2019-03-05T10:27:25.194Z,46.76
2019-03-05T10:29:55.967Z,46.80
2019-03-05T10:32:26.597Z,47.07
2019-03-05T10:34:57.350Z,46.65
2019-03-05T10:37:28.109Z,46.65
2019-03-05T10:39:58.878Z,45.78
2019-03-05T10:42:31.910Z,45.41
2019-03-05T10:45:01.731Z,45.95
2019-03-05T10:47:32.572Z,46.77
2019-03-05T10:50:03.308Z,46.16
2019-03-05T10:52:34.897Z,46.36
2019-03-05T10:55:08.831Z,46.31
2019-03-05T10:57:39.371Z,45.78
2019-03-05T11:00:26.366Z,45.99
2019-03-05T11:02:56.937Z,45.66
2019-03-05T11:05:28.820Z,45.43
2019-03-05T11:07:59.160Z,45.54
2019-03-05T11:10:31.263Z,45.87
2019-03-05T11:13:01.893Z,45.17
2019-03-05T11:15:36.336Z,45.44
2019-03-05T11:18:08.601Z,45.11
2019-03-05T11:20:39.454Z,45.49
2019-03-05T11:23:11.706Z,45.29
2019-03-05T11:25:42.413Z,45.27
2019-03-05T11:28:13.149Z,45.16
2019-03-05T11:30:44.025Z,45.28
2019-03-05T11:33:14.367Z,44.25
2019-03-05T11:35:45.123Z,44.69
2019-03-05T11:38:16.063Z,45.08
2019-03-05T11:40:46.940Z,44.92
2019-03-05T11:43:18.406Z,44.79
2019-03-05T11:45:48.956Z,44.83
2019-03-05T11:48:19.711Z,44.74
2019-03-05T11:50:51.647Z,44.70
2019-03-05T11:53:23.460Z,44.40
2019-03-05T11:55:53.919Z,44.13
2019-03-05T11:58:24.654Z,44.58
2019-03-05T12:01:02.990Z,44.35
2019-03-05T12:03:33.744Z,43.53
2019-03-05T12:06:04.500Z,43.84
2019-03-05T12:08:35.028Z,43.66
2019-03-05T12:11:05.500Z,43.65
2019-03-05T12:13:36.460Z,43.60
2019-03-05T12:16:07.411Z,43.42
2019-03-05T12:18:38.373Z,43.50
2019-03-05T12:21:09.208Z,43.68
2019-03-05T12:23:46.719Z,43.64
2019-03-05T12:26:12.166Z,43.64
2019-03-05T12:28:42.923Z,43.55
2019-03-05T12:31:13.778Z,43.26
2019-03-05T12:33:44.635Z,43.07
2019-03-05T12:36:15.387Z,43.31
2019-03-05T12:38:46.408Z,43.86
2019-03-05T12:41:17.405Z,43.97
2019-03-05T12:43:48.040Z,44.58
2019-03-05T12:46:18.008Z,44.83
2019-03-05T12:48:48.542Z,45.13
2019-03-05T12:51:19.193Z,45.30
2019-03-05T12:53:50.154Z,45.45
2019-03-05T12:56:24.154Z,45.65
2019-03-05T12:58:53.093Z,45.95
2019-03-05T13:01:23.745Z,46.09
2019-03-05T13:03:54.482Z,45.97
2019-03-05T13:06:25.458Z,46.01
2019-03-05T13:08:55.104Z,46.23
2019-03-05T13:11:25.516Z,46.28
2019-03-05T13:14:05.751Z,45.99
2019-03-05T13:16:28.165Z,46.02
2019-03-05T13:18:58.919Z,46.15
2019-03-05T13:21:29.552Z,45.67
2019-03-05T13:24:00.428Z,45.34
2019-03-05T13:26:31.077Z,45.18
2019-03-05T13:29:01.814Z,45.75
2019-03-05T13:31:32.484Z,46.40
2019-03-05T13:34:03.235Z,47.14
2019-03-05T13:36:34.091Z,47.49
2019-03-05T13:39:05.245Z,47.69
2019-03-05T13:41:35.805Z,47.84
2019-03-05T13:44:08.079Z,48.17
2019-03-05T13:46:38.727Z,48.48
2019-03-05T13:49:17.947Z,48.62
2019-03-05T13:52:08.667Z,48.90
2019-03-05T13:54:49.794Z,48.94
2019-03-05T13:57:26.251Z,49.11
2019-03-05T13:59:57.104Z,49.00
2019-03-05T14:02:29.000Z,49.16
2019-03-05T14:05:11.911Z,49.07
2019-03-05T14:08:08.536Z,49.00
2019-03-05T14:10:39.192Z,48.99
2019-03-05T14:13:10.565Z,49.01
2019-03-05T14:15:43.071Z,49.11
2019-03-05T14:18:13.807Z,49.03
2019-03-05T14:20:44.648Z,49.28
2019-03-05T14:23:15.397Z,49.57
2019-03-05T14:25:46.151Z,49.71
2019-03-05T14:28:16.813Z,50.08
2019-03-05T14:30:47.722Z,50.49
2019-03-05T14:33:18.549Z,50.60
2019-03-05T14:35:49.287Z,50.87
2019-03-05T14:38:20.042Z,50.97
2019-03-05T14:40:50.883Z,51.12
2019-03-05T14:43:21.561Z,50.99
2019-03-05T14:45:51.715Z,51.22
2019-03-05T14:48:22.151Z,51.43
2019-03-05T14:50:52.922Z,51.59
2019-03-05T14:53:23.786Z,51.76
2019-03-05T14:55:55.525Z,52.16
2019-03-05T14:58:26.410Z,52.13
2019-03-05T15:00:57.265Z,52.62
2019-03-05T15:03:27.808Z,53.07
2019-03-05T15:05:58.643Z,53.36
2019-03-05T15:08:29.397Z,53.55
2019-03-05T15:11:00.141Z,53.71
2019-03-05T15:13:30.722Z,53.97
2019-03-05T15:16:01.540Z,54.07
2019-03-05T15:18:32.448Z,53.94
2019-03-05T15:21:03.268Z,54.40
2019-03-05T15:23:34.005Z,54.38
2019-03-05T15:26:04.888Z,54.41
2019-03-05T15:28:35.649Z,55.02
2019-03-05T15:31:06.303Z,55.13
2019-03-05T15:33:37.368Z,55.00
2019-03-05T15:36:08.103Z,55.50
2019-03-05T15:38:38.637Z,55.59
2019-03-05T15:41:09.504Z,55.67
2019-03-05T15:43:40.363Z,55.56
2019-03-05T15:46:11.259Z,55.69
2019-03-05T15:48:42.180Z,55.63
2019-03-05T15:51:12.926Z,55.42
2019-03-05T15:56:15.357Z,54.85
2019-03-05T15:58:45.700Z,54.34
2019-03-05T16:01:22.351Z,54.05
2019-03-05T16:03:50.276Z,53.71
2019-03-05T16:06:21.133Z,53.34
2019-03-05T16:08:51.772Z,53.21
2019-03-05T16:11:21.737Z,53.20
2019-03-05T16:13:56.367Z,53.12
2019-03-05T16:16:24.337Z,52.72
2019-03-05T16:18:54.417Z,52.67
2019-03-05T16:21:24.821Z,52.67
2019-03-05T16:23:55.591Z,52.56
2019-03-05T16:26:26.330Z,52.79
2019-03-05T16:28:57.204Z,52.68
2019-03-05T16:31:32.559Z,52.75
2019-03-05T16:34:04.643Z,53.05
2019-03-05T16:36:55.119Z,52.96
2019-03-05T16:39:31.815Z,52.86
2019-03-05T16:42:13.826Z,53.21
2019-03-05T16:44:52.544Z,53.32
2019-03-05T16:47:25.236Z,53.19
2019-03-05T16:50:15.747Z,53.43
2019-03-05T16:52:47.930Z,53.34
2019-03-05T16:55:29.508Z,53.15
2019-03-05T16:58:14.804Z,53.34
2019-03-05T17:00:59.466Z,53.84
2019-03-05T17:03:40.754Z,53.77
2019-03-05T17:06:15.804Z,54.50
2019-03-05T17:09:03.110Z,55.03
2019-03-05T17:11:35.416Z,55.69
2019-03-05T17:14:15.068Z,56.10
2019-03-05T17:16:45.908Z,56.35
2019-03-05T17:19:16.778Z,56.30
2019-03-05T17:21:47.719Z,56.65
2019-03-05T17:24:18.687Z,56.95
2019-03-05T17:26:49.144Z,57.10
2019-03-05T17:29:19.778Z,57.29
2019-03-05T17:31:50.532Z,57.43
2019-03-05T17:34:21.301Z,57.64
2019-03-05T17:36:52.159Z,57.84
2019-03-05T17:39:23.219Z,57.67
2019-03-05T17:41:53.854Z,58.31
2019-03-05T17:44:24.732Z,58.50
2019-03-05T17:46:55.468Z,58.71
2019-03-05T17:49:26.257Z,59.14
2019-03-05T17:51:56.884Z,59.13
2019-03-05T17:54:27.741Z,59.29
2019-03-05T17:56:58.687Z,59.83
2019-03-05T17:59:30.283Z,60.03
2019-03-05T18:02:00.723Z,60.11
2019-03-05T18:04:31.576Z,59.83
2019-03-05T18:07:02.620Z,60.25
2019-03-05T18:09:33.274Z,60.00
2019-03-05T18:12:03.353Z,60.04
2019-03-05T18:14:33.859Z,60.48
2019-03-05T18:17:04.323Z,60.46
2019-03-05T18:19:34.386Z,60.05
2019-03-05T18:22:05.100Z,60.26
2019-03-05T18:24:35.768Z,59.99
2019-03-05T18:27:06.709Z,59.89
2019-03-05T18:29:37.688Z,60.06
2019-03-05T18:32:08.334Z,60.29
2019-03-05T18:34:39.071Z,60.68
2019-03-05T18:37:09.929Z,61.31
2019-03-05T18:39:42.626Z,61.94
2019-03-05T18:42:13.482Z,62.25
2019-03-05T18:44:44.238Z,63.11
2019-03-05T18:47:14.885Z,62.70
2019-03-05T18:49:46.299Z,63.08
2019-03-05T18:52:16.804Z,62.82
2019-03-05T18:54:47.458Z,62.77
2019-03-05T18:57:18.312Z,63.08
2019-03-05T18:59:50.104Z,64.15
2019-03-05T19:02:20.963Z,63.98
2019-03-05T19:04:51.697Z,64.06
2019-03-05T19:07:21.668Z,63.80
2019-03-05T19:09:52.204Z,63.98
2019-03-05T19:12:23.143Z,64.16
2019-03-05T19:14:53.800Z,64.56
2019-03-05T19:17:24.975Z,64.73
2019-03-05T19:19:55.918Z,64.98
2019-03-05T19:22:26.685Z,65.49
2019-03-05T19:24:57.422Z,65.60
2019-03-05T19:27:28.197Z,65.59
2019-03-05T19:29:59.051Z,65.52
2019-03-05T19:32:29.788Z,65.63
2019-03-05T19:35:00.647Z,66.33
2019-03-05T19:37:31.318Z,66.96
2019-03-05T19:40:02.150Z,67.44
2019-03-05T19:42:32.923Z,67.09
2019-03-05T19:45:04.197Z,65.76
2019-03-05T19:47:34.631Z,65.65
2019-03-05T19:50:08.558Z,65.22
2019-03-05T19:52:39.195Z,65.32
2019-03-05T19:55:10.401Z,65.31
2019-03-05T19:57:39.927Z,65.02
2019-03-05T20:00:17.916Z,65.13
2019-03-05T20:02:48.548Z,64.94
2019-03-05T20:05:19.321Z,64.92
2019-03-05T20:07:51.711Z,64.84
2019-03-05T20:10:25.008Z,64.86
2019-03-05T20:12:55.656Z,64.99
2019-03-05T20:15:26.410Z,64.85
2019-03-05T20:17:59.163Z,65.11
2019-03-05T20:20:29.352Z,65.24
2019-03-05T20:23:00.120Z,65.64
2019-03-05T20:25:31.453Z,65.27
2019-03-05T20:28:01.818Z,65.42
2019-03-05T20:30:32.691Z,65.23
2019-03-05T20:33:03.446Z,65.31
2019-03-05T20:35:34.078Z,65.25
2019-03-05T20:38:06.266Z,65.31
2019-03-05T20:40:37.120Z,65.28
2019-03-05T20:43:07.893Z,65.24
2019-03-05T20:45:50.508Z,65.63
2019-03-05T20:48:23.719Z,65.35
2019-03-05T20:50:54.470Z,65.12
2019-03-05T20:53:25.227Z,65.06
2019-03-05T20:55:56.069Z,65.20
2019-03-05T20:58:27.126Z,65.37
2019-03-05T21:00:57.881Z,65.54
2019-03-05T21:03:28.121Z,65.77
2019-03-05T21:05:59.094Z,65.90
2019-03-05T21:08:29.057Z,65.18
2019-03-05T21:10:59.462Z,65.32
2019-03-05T21:13:29.438Z,65.11
2019-03-05T21:15:59.962Z,65.19
2019-03-05T21:18:32.436Z,65.21
2019-03-05T21:21:03.343Z,65.40
2019-03-05T21:23:34.474Z,65.71
2019-03-05T21:26:04.906Z,65.92
2019-03-05T21:28:35.761Z,66.08
2019-03-05T21:31:06.515Z,66.44
2019-03-05T21:33:37.286Z,66.62
2019-03-05T21:36:07.938Z,67.00
2019-03-05T21:38:38.795Z,66.85
2019-03-05T21:41:09.548Z,67.27
2019-03-05T21:43:40.284Z,67.04
2019-03-05T21:46:14.209Z,67.21
2019-03-05T21:48:45.084Z,67.33
2019-03-05T21:51:15.717Z,67.49
2019-03-05T21:53:45.796Z,67.42
2019-03-05T21:56:16.015Z,67.33
2019-03-05T21:58:46.647Z,67.19
2019-03-05T22:01:18.440Z,67.17
2019-03-05T22:03:49.504Z,67.45
2019-03-05T22:06:20.460Z,67.60
2019-03-05T22:08:51.215Z,67.81
2019-03-05T22:11:21.867Z,67.89
2019-03-05T22:13:52.721Z,67.72
2019-03-05T22:16:23.578Z,67.46
2019-03-05T22:18:54.213Z,67.67
2019-03-05T22:21:24.191Z,67.70
2019-03-05T22:23:54.596Z,67.93
2019-03-05T22:26:25.469Z,68.17
2019-03-05T22:28:56.326Z,68.17
2019-03-05T22:31:27.164Z,68.31
2019-03-05T22:33:57.936Z,68.42
2019-03-05T22:36:28.587Z,68.10
2019-03-05T22:38:59.324Z,67.80
2019-03-05T22:41:30.092Z,67.64
2019-03-05T22:44:00.848Z,67.81
2019-03-05T22:46:31.626Z,67.71
2019-03-05T22:49:01.359Z,67.76
2019-03-05T22:51:31.780Z,67.92
2019-03-05T22:54:02.432Z,67.92
2019-03-05T22:56:33.291Z,67.35
2019-03-05T22:59:04.144Z,67.41
2019-03-05T23:01:37.300Z,67.44
2019-03-05T23:04:07.697Z,67.22
2019-03-05T23:06:38.435Z,67.32
2019-03-05T23:09:10.570Z,66.75
2019-03-05T23:11:40.983Z,66.63
2019-03-05T23:14:11.839Z,66.29
2019-03-05T23:16:42.693Z,66.28
2019-03-05T23:19:13.755Z,66.35
2019-03-05T23:21:44.304Z,66.14
2019-03-05T23:24:15.144Z,65.83
2019-03-05T23:26:45.915Z,65.77
2019-03-05T23:29:16.549Z,65.92
2019-03-05T23:31:47.730Z,66.02
2019-03-05T23:34:18.672Z,66.00
2019-03-05T23:36:49.237Z,66.08
2019-03-05T23:39:20.102Z,66.16
2019-03-05T23:41:50.846Z,66.22
2019-03-05T23:44:21.584Z,66.15
2019-03-05T23:46:52.457Z,66.26
2019-03-05T23:49:23.314Z,66.55
2019-03-05T23:51:53.966Z,66.58
2019-03-05T23:54:27.178Z,66.71
2019-03-05T23:56:59.461Z,66.64
2019-03-05T23:59:34.920Z,66.90
